Time;durP1;ratioP1;P1;durP2;ratioP2;P2;SDS_P1;SDS_P2;PMS_P1;PMS_P2;Temp;Humidity;BMP_temperature;BMP_pressure;BME280_temperature;BME280_humidity;BME280_pressure;Samples;Min_cycle;Max_cycle;Signal;HPM_P1;HPM_P2
2021/04/23 00:01:29;;;;;;;15.33;14.20;;;6.50;99.90;;;;;;5071853;28;20443;-66
2021/04/23 00:03:58;;;;;;;15.50;14.20;;;6.40;99.90;;;;;;5071901;28;20447;-65
2021/04/23 00:06:26;;;;;;;15.33;14.33;;;6.40;99.90;;;;;;5071812;28;20443;-65
2021/04/23 00:08:56;;;;;;;16.13;15.10;;;6.40;99.90;;;;;;5071551;28;20448;-65
2021/04/23 00:11:27;;;;;;;15.50;14.40;;;6.30;99.90;;;;;;5071664;28;20901;-65
2021/04/23 00:13:54;;;;;;;16.07;14.83;;;6.30;99.90;;;;;;5071723;28;20451;-65
2021/04/23 00:16:20;;;;;;;15.30;14.20;;;6.30;99.90;;;;;;5071452;28;20443;-66
2021/04/23 00:18:47;;;;;;;16.00;14.53;;;6.20;99.90;;;;;;5071336;28;20450;-65
2021/04/23 00:21:18;;;;;;;15.33;14.03;;;6.20;99.90;;;;;;5071429;28;20463;-65
2021/04/23 00:23:44;;;;;;;16.17;15.07;;;6.20;99.90;;;;;;5071525;28;20493;-65
2021/04/23 00:26:11;;;;;;;16.70;15.57;;;6.20;99.90;;;;;;5071454;28;20447;-65
2021/04/23 00:28:38;;;;;;;16.93;15.60;;;6.10;99.90;;;;;;5071287;28;20447;-65
2021/04/23 00:31:06;;;;;;;17.70;16.50;;;6.10;99.90;;;;;;5071302;28;20510;-64
2021/04/23 00:33:33;;;;;;;16.73;15.53;;;6.10;99.90;;;;;;5071374;28;20440;-66
2021/04/23 00:35:59;;;;;;;16.67;15.33;;;6.10;99.90;;;;;;5071484;28;20450;-65
2021/04/23 00:38:28;;;;;;;16.20;15.00;;;6.10;99.90;;;;;;5071098;28;20462;-65
2021/04/23 00:40:57;;;;;;;16.63;15.40;;;6.00;99.90;;;;;;5071281;28;20481;-65
2021/04/23 00:43:28;;;;;;;14.53;13.50;;;6.00;99.90;;;;;;5071150;28;20439;-66
2021/04/23 00:45:55;;;;;;;16.87;15.30;;;6.00;99.90;;;;;;5071222;28;20451;-65
2021/04/23 00:48:23;;;;;;;15.83;14.70;;;5.90;99.90;;;;;;5070819;28;20439;-65
2021/04/23 00:50:51;;;;;;;17.17;15.90;;;5.90;99.90;;;;;;5071001;28;20474;-65
2021/04/23 00:53:21;;;;;;;15.83;14.47;;;5.90;99.90;;;;;;5071105;28;20443;-65
2021/04/23 00:55:47;;;;;;;16.83;15.83;;;5.80;99.90;;;;;;5071201;28;20481;-65
2021/04/23 00:58:16;;;;;;;16.83;15.43;;;5.80;99.90;;;;;;5070800;28;20804;-65
2021/04/23 01:00:45;;;;;;;17.13;15.80;;;5.80;99.90;;;;;;5070885;28;20816;-65
2021/04/23 01:03:12;;;;;;;17.73;16.47;;;5.70;99.90;;;;;;5070985;28;20435;-65
2021/04/23 01:05:41;;;;;;;16.30;15.30;;;5.70;99.90;;;;;;5070956;28;20454;-66
2021/04/23 01:08:08;;;;;;;20.93;15.77;;;5.70;99.90;;;;;;5070739;28;20451;-65
2021/04/23 01:10:36;;;;;;;17.27;15.77;;;5.60;99.90;;;;;;5073967;28;20474;-65
2021/04/23 01:13:02;;;;;;;16.50;15.30;;;5.60;99.90;;;;;;5074707;28;20840;-65
2021/04/23 01:15:29;;;;;;;17.57;16.37;;;5.50;99.90;;;;;;5074686;28;20443;-65
2021/04/23 01:17:55;;;;;;;17.90;16.40;;;5.50;99.90;;;;;;5074474;28;20504;-65
2021/04/23 01:20:22;;;;;;;16.57;15.00;;;5.50;99.90;;;;;;5074560;28;20467;-65
2021/04/23 01:22:49;;;;;;;17.70;16.27;;;5.40;99.90;;;;;;5074737;28;20982;-65
2021/04/23 01:25:17;;;;;;;16.83;15.43;;;5.40;99.90;;;;;;5074841;28;20835;-65
2021/04/23 01:27:43;;;;;;;17.37;15.57;;;5.40;99.90;;;;;;5074522;28;20477;-65
2021/04/23 01:30:13;;;;;;;17.63;16.03;;;5.40;99.90;;;;;;5074606;28;20474;-65
2021/04/23 01:32:40;;;;;;;17.40;15.60;;;5.30;99.90;;;;;;5074494;28;20485;-65
2021/04/23 01:35:09;;;;;;;18.63;16.97;;;5.30;99.90;;;;;;5074713;28;20443;-65
2021/04/23 01:37:35;;;;;;;19.17;17.53;;;5.30;99.90;;;;;;5074328;28;20447;-66
2021/04/23 01:40:04;;;;;;;18.07;15.40;;;5.30;99.90;;;;;;5074397;28;20532;-65
2021/04/23 01:42:31;;;;;;;17.50;15.83;;;5.30;99.90;;;;;;5074459;28;20446;-65
2021/04/23 01:44:58;;;;;;;17.77;16.20;;;5.30;99.90;;;;;;5074175;28;20443;-64
2021/04/23 01:47:26;;;;;;;17.07;15.50;;;5.30;99.90;;;;;;5074159;28;20940;-65
2021/04/23 01:49:52;;;;;;;17.00;15.80;;;5.30;99.90;;;;;;5073877;28;20993;-65
2021/04/23 01:52:18;;;;;;;17.47;16.13;;;5.30;99.90;;;;;;5073983;28;20482;-65
2021/04/23 01:54:45;;;;;;;17.00;15.53;;;5.30;99.90;;;;;;5074048;28;20962;-66
2021/04/23 01:57:12;;;;;;;17.57;16.20;;;5.30;99.90;;;;;;5073946;28;20451;-65
2021/04/23 01:59:40;;;;;;;20.60;17.13;;;5.30;99.90;;;;;;5073632;28;20463;-65
2021/04/23 02:02:06;;;;;;;16.83;15.57;;;5.30;99.90;;;;;;5073931;28;20431;-65
2021/04/23 02:04:33;;;;;;;16.30;15.20;;;5.30;99.90;;;;;;5073940;28;20456;-65
2021/04/23 02:07:01;;;;;;;16.50;15.13;;;5.20;99.90;;;;;;5073831;28;20948;-65
2021/04/23 02:09:27;;;;;;;17.23;15.93;;;5.20;99.90;;;;;;5073307;28;20475;-65
2021/04/23 02:11:54;;;;;;;19.70;16.07;;;5.20;99.90;;;;;;5073539;28;20985;-65
2021/04/23 02:14:23;;;;;;;17.23;15.50;;;5.20;99.90;;;;;;5073709;28;20443;-65
2021/04/23 02:16:50;;;;;;;16.20;15.07;;;5.10;99.90;;;;;;5073654;28;20439;-65
2021/04/23 02:19:18;;;;;;;17.27;15.67;;;5.10;99.90;;;;;;5073269;28;20463;-65
2021/04/23 02:21:46;;;;;;;16.37;14.83;;;5.10;99.90;;;;;;5073442;28;20442;-65
2021/04/23 02:24:12;;;;;;;17.57;16.20;;;5.00;99.90;;;;;;5073653;28;20443;-65
2021/04/23 02:26:40;;;;;;;17.87;16.27;;;5.00;99.90;;;;;;5073351;28;20447;-65
2021/04/23 02:29:07;;;;;;;16.17;14.90;;;5.00;99.90;;;;;;5073214;28;20458;-65
2021/04/23 02:31:37;;;;;;;16.27;15.07;;;5.00;99.90;;;;;;5073299;28;20487;-65
2021/04/23 02:34:06;;;;;;;17.57;16.27;;;5.00;99.90;;;;;;5073434;28;20450;-65
2021/04/23 02:36:33;;;;;;;17.77;16.47;;;4.90;99.90;;;;;;5073444;28;20474;-65
2021/04/23 02:38:59;;;;;;;17.60;15.93;;;4.90;99.90;;;;;;5073022;28;20435;-65
2021/04/23 02:41:26;;;;;;;16.70;15.30;;;4.90;99.90;;;;;;5073235;28;20443;-65
2021/04/23 02:43:55;;;;;;;18.60;16.60;;;4.80;99.90;;;;;;5073295;28;20439;-65
2021/04/23 02:46:23;;;;;;;16.60;15.30;;;4.80;99.90;;;;;;5072957;28;20448;-65
2021/04/23 02:48:51;;;;;;;18.60;16.97;;;4.70;99.90;;;;;;5072743;28;20502;-65
2021/04/23 02:51:20;;;;;;;18.60;16.40;;;4.60;99.90;;;;;;5072709;28;20462;-65
2021/04/23 02:53:47;;;;;;;18.23;16.37;;;4.60;99.90;;;;;;5072746;28;20925;-65
2021/04/23 02:56:15;;;;;;;17.40;15.80;;;4.60;99.90;;;;;;5072729;28;20454;-65
2021/04/23 02:58:41;;;;;;;17.83;16.23;;;4.50;99.90;;;;;;5072508;28;20959;-65
2021/04/23 03:01:11;;;;;;;20.23;17.73;;;4.50;99.90;;;;;;5072742;28;20474;-65
2021/04/23 03:03:38;;;;;;;17.33;15.63;;;4.50;99.90;;;;;;5072675;28;20497;-65
2021/04/23 03:06:06;;;;;;;17.50;15.37;;;4.40;99.90;;;;;;5072683;28;20443;-65
2021/04/23 03:08:33;;;;;;;17.70;15.97;;;4.40;99.90;;;;;;5072490;28;20808;-65
2021/04/23 03:11:07;;;;;;;17.37;15.73;;;4.30;99.90;;;;;;5072274;28;20472;-65
2021/04/23 03:13:33;;;;;;;16.80;15.10;;;4.30;99.90;;;;;;5072488;28;20929;-65
2021/04/23 03:16:00;;;;;;;18.33;16.57;;;4.30;99.90;;;;;;5072528;28;20477;-65
2021/04/23 03:18:30;;;;;;;17.27;15.93;;;4.30;99.90;;;;;;5072488;28;20946;-65
2021/04/23 03:20:58;;;;;;;17.50;15.77;;;4.30;99.90;;;;;;5072539;28;20463;-65
2021/04/23 03:23:25;;;;;;;16.90;15.33;;;4.30;99.90;;;;;;5072444;28;20489;-65
2021/04/23 03:25:52;;;;;;;17.40;15.97;;;4.40;99.90;;;;;;5072491;28;20496;-66
2021/04/23 03:28:19;;;;;;;17.03;15.50;;;4.40;99.90;;;;;;5072266;28;20485;-65
2021/04/23 03:30:46;;;;;;;21.27;16.43;;;4.40;99.90;;;;;;5072179;28;20996;-65
2021/04/23 03:33:16;;;;;;;17.70;15.90;;;4.30;99.90;;;;;;5072013;28;20490;-65
2021/04/23 03:35:45;;;;;;;18.30;16.53;;;4.30;99.90;;;;;;5072180;28;20982;-65
2021/04/23 03:38:12;;;;;;;17.47;16.07;;;4.20;99.90;;;;;;5072175;28;20497;-65
2021/04/23 03:40:42;;;;;;;17.73;15.83;;;4.10;99.90;;;;;;5071974;28;20464;-65
2021/04/23 03:43:08;;;;;;;18.37;16.77;;;4.10;99.90;;;;;;5072284;28;20933;-66
2021/04/23 03:45:36;;;;;;;19.40;17.40;;;4.00;99.90;;;;;;5072164;28;20478;-65
2021/04/23 03:48:03;;;;;;;19.50;17.63;;;4.00;99.90;;;;;;5071882;28;20443;-65
2021/04/23 03:50:32;;;;;;;18.37;16.40;;;3.90;99.90;;;;;;5071885;28;20474;-65
2021/04/23 03:53:01;;;;;;;17.97;16.17;;;3.90;99.90;;;;;;5072075;28;20482;-65
2021/04/23 03:55:29;;;;;;;18.40;16.67;;;3.90;99.90;;;;;;5071911;28;20477;-65
2021/04/23 03:57:57;;;;;;;17.73;16.07;;;3.90;99.90;;;;;;5071965;28;20439;-65
2021/04/23 04:00:27;;;;;;;17.73;16.30;;;4.00;99.90;;;;;;5071733;28;20463;-65
2021/04/23 04:02:54;;;;;;;18.53;16.57;;;4.00;99.90;;;;;;5071974;28;20436;-65
2021/04/23 04:05:20;;;;;;;19.60;17.70;;;4.00;99.90;;;;;;5071892;28;20805;-65
2021/04/23 04:07:46;;;;;;;19.67;17.93;;;4.00;99.90;;;;;;5071674;28;20508;-65
2021/04/23 04:10:14;;;;;;;17.97;16.37;;;4.00;99.90;;;;;;5071875;28;20475;-65
2021/04/23 04:12:40;;;;;;;19.10;17.33;;;4.00;99.90;;;;;;5071128;28;20487;-65
2021/04/23 04:15:08;;;;;;;18.67;17.07;;;4.00;99.90;;;;;;5071487;28;20443;-65
2021/04/23 04:17:35;;;;;;;19.43;17.60;;;4.00;99.90;;;;;;5071213;28;20466;-65
2021/04/23 04:20:02;;;;;;;20.03;18.20;;;4.00;99.90;;;;;;5070953;28;20459;-66
2021/04/23 04:22:28;;;;;;;20.23;18.17;;;4.00;99.90;;;;;;5071368;28;20435;-65
2021/04/23 04:24:54;;;;;;;20.10;18.10;;;4.00;99.90;;;;;;5071448;28;20500;-64
2021/04/23 04:27:21;;;;;;;19.37;17.63;;;4.00;99.90;;;;;;5071471;28;20942;-65
2021/04/23 04:29:48;;;;;;;19.73;16.67;;;4.00;99.90;;;;;;5071145;28;20458;-66
2021/04/23 04:32:16;;;;;;;19.80;17.87;;;4.00;99.90;;;;;;5071484;28;20475;-65
2021/04/23 04:34:42;;;;;;;18.67;17.10;;;3.90;99.90;;;;;;5071371;28;20810;-65
2021/04/23 04:37:09;;;;;;;21.07;17.60;;;3.90;99.90;;;;;;5071480;28;20460;-65
2021/04/23 04:39:35;;;;;;;20.40;18.30;;;3.90;99.90;;;;;;5071058;28;20474;-66
2021/04/23 04:42:01;;;;;;;19.80;18.00;;;3.90;99.90;;;;;;5071310;28;20799;-66
2021/04/23 04:44:28;;;;;;;19.73;17.93;;;3.90;99.90;;;;;;5072802;28;20445;-65
2021/04/23 04:46:54;;;;;;;21.77;19.77;;;3.90;99.90;;;;;;5075524;28;20492;-65
2021/04/23 04:49:21;;;;;;;19.40;17.30;;;3.90;99.90;;;;;;5075217;28;21058;-65
2021/04/23 04:51:47;;;;;;;21.13;17.63;;;4.00;99.90;;;;;;5075342;28;20565;-65
2021/04/23 04:54:14;;;;;;;19.23;17.73;;;4.10;99.90;;;;;;5075342;28;20454;-66
2021/04/23 04:56:40;;;;;;;22.80;18.90;;;4.20;99.90;;;;;;5075288;28;20443;-66
2021/04/23 04:59:06;;;;;;;19.80;18.20;;;4.20;99.90;;;;;;5075163;28;20443;-66
2021/04/23 05:01:32;;;;;;;21.33;19.17;;;4.20;99.90;;;;;;5075487;28;20435;-65
2021/04/23 05:03:59;;;;;;;19.70;17.93;;;4.30;99.90;;;;;;5075219;28;20500;-65
2021/04/23 05:06:26;;;;;;;21.03;19.30;;;4.30;99.90;;;;;;5074967;28;20925;-66
2021/04/23 05:08:52;;;;;;;19.40;17.60;;;4.40;99.90;;;;;;5074634;28;20450;-65
2021/04/23 05:11:18;;;;;;;21.03;19.20;;;4.40;99.90;;;;;;5074847;28;20443;-66
2021/04/23 05:13:44;;;;;;;19.00;17.07;;;4.50;99.90;;;;;;5075053;28;20455;-66
2021/04/23 05:16:11;;;;;;;20.83;18.73;;;4.50;99.90;;;;;;5074681;28;20512;-66
2021/04/23 05:18:37;;;;;;;20.90;19.10;;;4.50;99.90;;;;;;5074738;28;20828;-66
2021/04/23 05:21:03;;;;;;;19.60;17.63;;;4.60;99.90;;;;;;5074871;28;20477;-66
2021/04/23 05:23:30;;;;;;;20.13;18.27;;;4.60;99.90;;;;;;5074822;28;20446;-65
2021/04/23 05:25:57;;;;;;;21.07;18.43;;;4.70;99.90;;;;;;5074803;28;20443;-66
2021/04/23 05:28:23;;;;;;;21.90;19.63;;;4.80;99.90;;;;;;5074558;28;20438;-66
2021/04/23 05:30:50;;;;;;;20.87;18.87;;;4.90;99.90;;;;;;5074430;28;20466;-65
2021/04/23 05:33:16;;;;;;;20.20;18.30;;;4.90;99.90;;;;;;5074274;28;20729;-66
2021/04/23 05:35:43;;;;;;;22.10;20.17;;;5.00;99.90;;;;;;5074295;28;20443;-66
2021/04/23 05:38:11;;;;;;;21.20;19.00;;;5.10;99.90;;;;;;5074365;28;20823;-65
2021/04/23 05:40:43;;;;;;;19.77;18.07;;;5.20;99.90;;;;;;5074165;28;20856;-65
2021/04/23 05:43:09;;;;;;;22.17;20.17;;;5.30;99.90;;;;;;5074428;28;20921;-65
2021/04/23 05:45:36;;;;;;;19.70;17.93;;;5.30;99.90;;;;;;5074385;28;20447;-65
2021/04/23 05:48:04;;;;;;;22.73;20.83;;;5.40;99.90;;;;;;5074015;28;20785;-65
2021/04/23 05:50:30;;;;;;;21.83;19.20;;;5.50;99.90;;;;;;5073857;28;21156;-65
2021/04/23 05:52:57;;;;;;;22.00;19.97;;;5.60;99.90;;;;;;5072552;28;21230;-66
2021/04/23 05:55:25;;;;;;;20.90;19.10;;;5.70;99.90;;;;;;5071280;28;20940;-65
2021/04/23 05:57:53;;;;;;;23.10;20.87;;;5.70;99.90;;;;;;5071832;28;20453;-65
2021/04/23 06:00:20;;;;;;;21.30;19.27;;;5.80;99.90;;;;;;5071775;28;20798;-65
2021/04/23 06:02:48;;;;;;;21.20;19.00;;;5.90;99.90;;;;;;5072014;28;20447;-65
2021/04/23 06:05:15;;;;;;;21.57;19.47;;;6.00;99.90;;;;;;5071950;28;20443;-65
2021/04/23 06:07:42;;;;;;;22.77;18.40;;;6.00;99.90;;;;;;5071694;28;20517;-65
2021/04/23 06:10:10;;;;;;;20.73;18.83;;;6.10;99.90;;;;;;5071649;28;20478;-65
2021/04/23 06:12:36;;;;;;;22.43;19.97;;;6.10;99.90;;;;;;5071976;28;21386;-65
2021/04/23 06:15:05;;;;;;;19.13;17.30;;;6.30;99.90;;;;;;5071884;28;20447;-65
2021/04/23 06:17:31;;;;;;;20.00;18.40;;;6.30;99.90;;;;;;5071828;28;20455;-65
2021/04/23 06:19:57;;;;;;;20.20;18.30;;;6.40;99.90;;;;;;5071366;28;20463;-65
2021/04/23 06:22:24;;;;;;;19.63;17.67;;;6.50;99.90;;;;;;5071809;28;20445;-65
2021/04/23 06:24:50;;;;;;;16.80;15.70;;;6.60;99.90;;;;;;5071714;28;20851;-65
2021/04/23 06:27:16;;;;;;;18.93;17.07;;;6.60;99.90;;;;;;5071617;28;20473;-65
2021/04/23 06:29:44;;;;;;;18.37;16.60;;;6.70;99.90;;;;;;5071307;28;20467;-65
2021/04/23 06:32:11;;;;;;;20.20;18.10;;;6.70;99.90;;;;;;5071468;28;20532;-65
2021/04/23 06:34:37;;;;;;;17.23;15.27;;;6.80;99.90;;;;;;5072254;28;20550;-65
2021/04/23 06:37:04;;;;;;;19.37;17.77;;;6.90;99.90;;;;;;5073141;28;20440;-65
2021/04/23 06:39:30;;;;;;;17.97;16.57;;;7.00;99.90;;;;;;5073153;28;20459;-65
2021/04/23 06:41:57;;;;;;;19.17;17.13;;;7.10;99.90;;;;;;5073529;28;20443;-65
2021/04/23 06:44:23;;;;;;;18.13;16.37;;;7.20;99.90;;;;;;5073397;28;20439;-65
2021/04/23 06:46:50;;;;;;;17.43;15.73;;;7.20;99.90;;;;;;5073379;28;20521;-65
2021/04/23 06:49:18;;;;;;;19.07;17.50;;;7.30;99.90;;;;;;5073453;28;20459;-67
2021/04/23 06:51:45;;;;;;;18.80;17.30;;;7.40;99.90;;;;;;5073355;28;20482;-67
2021/04/23 06:54:11;;;;;;;18.60;17.17;;;7.40;99.90;;;;;;5073169;28;20475;-66
2021/04/23 06:56:37;;;;;;;18.73;17.43;;;7.40;99.90;;;;;;5073136;28;20959;-67
2021/04/23 06:59:04;;;;;;;22.63;20.40;;;7.40;99.90;;;;;;5072676;28;20448;-66
2021/04/23 07:01:30;;;;;;;16.83;15.53;;;7.50;99.90;;;;;;5073337;28;20844;-67
2021/04/23 07:03:57;;;;;;;16.03;14.97;;;7.60;99.90;;;;;;5073147;28;21074;-66
2021/04/23 07:06:24;;;;;;;17.87;16.20;;;7.70;99.90;;;;;;5072364;28;20442;-66
2021/04/23 07:08:50;;;;;;;17.73;16.27;;;7.70;99.90;;;;;;5072611;28;20812;-66
2021/04/23 07:11:19;;;;;;;17.67;16.27;;;8.00;99.90;;;;;;5072702;28;20462;-66
2021/04/23 07:13:45;;;;;;;16.80;15.57;;;7.80;99.90;;;;;;5072663;28;20837;-67
2021/04/23 07:16:12;;;;;;;17.17;15.67;;;8.20;99.90;;;;;;5072751;28;20443;-67
2021/04/23 07:18:38;;;;;;;16.70;15.70;;;8.40;99.90;;;;;;5072338;28;20801;-66
2021/04/23 07:21:04;;;;;;;17.73;16.23;;;8.60;99.60;;;;;;5073204;28;20470;-68
2021/04/23 07:23:31;;;;;;;17.13;15.47;;;8.70;98.50;;;;;;5072756;28;20440;-67
2021/04/23 07:25:58;;;;;;;18.43;16.87;;;8.90;97.20;;;;;;5072597;28;20439;-66
2021/04/23 07:28:24;;;;;;;17.90;16.40;;;9.10;97.30;;;;;;5072172;28;20606;-66
2021/04/23 07:30:50;;;;;;;15.40;14.57;;;9.40;95.90;;;;;;5072260;28;20460;-65
2021/04/23 07:33:17;;;;;;;17.77;16.30;;;9.50;93.60;;;;;;5072339;28;20517;-66
2021/04/23 07:35:45;;;;;;;16.80;15.70;;;9.70;93.10;;;;;;5072360;28;20851;-66
2021/04/23 07:38:12;;;;;;;16.17;15.10;;;9.90;92.70;;;;;;5072174;28;20627;-66
2021/04/23 07:40:39;;;;;;;16.50;15.57;;;10.30;90.60;;;;;;5072275;28;20935;-66
2021/04/23 07:43:05;;;;;;;16.93;15.80;;;10.10;88.10;;;;;;5072137;28;20469;-66
2021/04/23 07:45:32;;;;;;;15.53;14.87;;;10.40;86.70;;;;;;5072294;28;20439;-66
2021/04/23 07:47:58;;;;;;;16.80;15.80;;;10.50;82.70;;;;;;5072088;28;20833;-70
2021/04/23 07:50:26;;;;;;;18.67;17.27;;;10.40;85.20;;;;;;5072195;28;20862;-66
2021/04/23 07:52:53;;;;;;;16.57;15.63;;;10.70;84.70;;;;;;5072144;28;20475;-66
2021/04/23 07:55:21;;;;;;;16.57;15.37;;;10.90;80.20;;;;;;5071998;28;20476;-66
2021/04/23 07:57:50;;;;;;;16.40;15.60;;;11.10;79.30;;;;;;5071807;28;21018;-66
2021/04/23 08:00:19;;;;;;;16.80;15.60;;;10.90;77.30;;;;;;5072050;28;20515;-67
2021/04/23 08:02:46;;;;;;;18.13;16.87;;;10.80;73.60;;;;;;5071773;28;20434;-66
2021/04/23 08:05:14;;;;;;;16.83;15.93;;;10.80;73.70;;;;;;5071891;28;20443;-66
2021/04/23 08:07:41;;;;;;;16.53;15.47;;;10.70;74.90;;;;;;5071607;28;20446;-66
2021/04/23 08:10:09;;;;;;;17.53;16.53;;;10.60;71.00;;;;;;5071378;28;20479;-66
2021/04/23 08:12:35;;;;;;;17.37;16.30;;;10.30;70.50;;;;;;5071792;28;20483;-66
2021/04/23 08:15:03;;;;;;;16.57;15.57;;;9.90;74.20;;;;;;5071491;28;20435;-66
2021/04/23 08:17:30;;;;;;;16.97;15.87;;;9.80;76.00;;;;;;5071728;28;20816;-66
2021/04/23 08:19:56;;;;;;;17.80;16.80;;;9.90;76.80;;;;;;5071465;28;20502;-66
2021/04/23 08:22:22;;;;;;;17.20;15.80;;;9.90;75.60;;;;;;5071625;28;20443;-66
2021/04/23 08:24:48;;;;;;;16.70;15.70;;;10.00;74.20;;;;;;5071635;28;20810;-66
2021/04/23 08:27:15;;;;;;;16.63;15.63;;;9.80;72.00;;;;;;5071602;28;20439;-66
2021/04/23 08:29:41;;;;;;;17.67;16.50;;;9.80;73.80;;;;;;5071302;28;20592;-66
2021/04/23 08:32:08;;;;;;;18.17;16.97;;;9.90;75.70;;;;;;5071651;28;20812;-66
2021/04/23 08:34:34;;;;;;;17.60;16.50;;;10.00;74.70;;;;;;5071542;28;20747;-66
2021/04/23 08:37:00;;;;;;;17.30;16.20;;;10.00;74.90;;;;;;5071438;28;20446;-66
2021/04/23 08:39:27;;;;;;;19.57;17.87;;;10.00;74.00;;;;;;5071147;28;20462;-66
2021/04/23 08:41:54;;;;;;;18.03;16.27;;;9.90;75.20;;;;;;5071332;28;20439;-65
2021/04/23 08:44:20;;;;;;;19.97;18.27;;;9.80;74.30;;;;;;5071383;28;20588;-66
2021/04/23 08:46:47;;;;;;;19.33;17.90;;;9.40;74.60;;;;;;5071420;28;20439;-66
2021/04/23 08:49:17;;;;;;;19.27;17.70;;;9.40;76.20;;;;;;5070974;28;20468;-66
2021/04/23 08:51:44;;;;;;;19.97;18.50;;;9.50;77.00;;;;;;5071229;28;20660;-66
2021/04/23 08:54:10;;;;;;;17.97;17.07;;;9.70;78.70;;;;;;5071332;28;20443;-66
2021/04/23 08:56:37;;;;;;;18.80;17.30;;;10.00;77.10;;;;;;5071549;28;20443;-66
2021/04/23 08:59:03;;;;;;;17.60;16.23;;;10.10;75.00;;;;;;5070993;28;20504;-66
2021/04/23 09:01:30;;;;;;;17.90;17.00;;;10.20;73.10;;;;;;5071158;28;20454;-66
2021/04/23 09:03:56;;;;;;;20.80;19.20;;;10.40;72.70;;;;;;5071248;28;20436;-66
2021/04/23 09:06:25;;;;;;;18.60;17.00;;;10.30;72.00;;;;;;5071204;28;20447;-66
2021/04/23 09:09:06;;;;;;;17.30;16.10;;;10.40;73.20;;;;;;5070939;28;20451;-66
2021/04/23 09:11:37;;;;;;;21.30;19.20;;;10.50;72.50;;;;;;5071257;28;20489;-65
2021/04/23 09:14:06;;;;;;;19.20;17.57;;;10.30;69.80;;;;;;5071587;28;20440;-66
2021/04/23 09:16:48;;;;;;;18.03;16.77;;;10.10;69.90;;;;;;5071110;28;20495;-65
2021/04/23 09:19:19;;;;;;;17.00;15.70;;;10.30;70.90;;;;;;5069011;28;20475;-66
2021/04/23 09:21:47;;;;;;;18.50;17.00;;;10.40;70.00;;;;;;5071099;28;20589;-66
2021/04/23 09:24:22;;;;;;;19.57;18.00;;;10.40;69.40;;;;;;5071052;28;20862;-66
2021/04/23 09:26:49;;;;;;;18.20;17.00;;;10.50;69.00;;;;;;5071020;28;20446;-66
2021/04/23 09:29:26;;;;;;;18.77;17.33;;;10.50;69.80;;;;;;5070743;28;20507;-66
2021/04/23 09:31:52;;;;;;;18.67;17.50;;;10.70;68.70;;;;;;5074607;28;20438;-66
2021/04/23 09:34:19;;;;;;;18.47;17.17;;;10.90;68.20;;;;;;5074524;28;20451;-66
2021/04/23 09:36:47;;;;;;;18.90;17.50;;;10.60;64.80;;;;;;5074789;28;20439;-66
2021/04/23 09:39:15;;;;;;;18.40;17.20;;;10.50;65.00;;;;;;5074349;28;20498;-66
2021/04/23 09:41:44;;;;;;;18.20;17.10;;;10.50;67.20;;;;;;5074408;28;20886;-65
2021/04/23 09:44:28;;;;;;;17.90;16.77;;;10.80;68.60;;;;;;5074249;28;20446;-66
2021/04/23 09:47:00;;;;;;;17.23;16.40;;;10.60;65.30;;;;;;5074446;28;20496;-66
2021/04/23 09:49:27;;;;;;;18.80;17.70;;;10.70;65.80;;;;;;5074084;28;20454;-66
2021/04/23 09:51:54;;;;;;;18.73;17.77;;;11.10;66.30;;;;;;5074282;28;20785;-67
2021/04/23 09:54:22;;;;;;;17.43;16.43;;;11.00;63.80;;;;;;5074096;28;20450;-66
2021/04/23 09:56:49;;;;;;;18.53;17.33;;;11.00;62.10;;;;;;5074152;28;20443;-66
2021/04/23 09:59:19;;;;;;;18.40;17.40;;;10.90;61.30;;;;;;5073932;28;20459;-66
2021/04/23 10:01:52;;;;;;;19.53;18.33;;;11.40;61.60;;;;;;5074158;28;20453;-66
2021/04/23 10:04:27;;;;;;;17.60;16.60;;;11.60;60.40;;;;;;5073985;28;20439;-66
2021/04/23 10:07:24;;;;;;;17.50;16.50;;;11.50;60.20;;;;;;5074056;28;20481;-66
2021/04/23 10:09:54;;;;;;;17.77;16.60;;;11.50;60.50;;;;;;5031979;28;20476;-66
2021/04/23 10:12:36;;;;;;;26.83;18.97;;;11.70;60.20;;;;;;5064964;28;20487;-66
2021/04/23 10:15:06;;;;;;;17.63;16.60;;;12.00;62.20;;;;;;5073930;28;20447;-66
2021/04/23 10:17:32;;;;;;;18.83;17.37;;;12.20;59.80;;;;;;5073726;28;20447;-65
2021/04/23 10:19:59;;;;;;;17.70;16.70;;;12.50;57.80;;;;;;5073611;28;20459;-66
2021/04/23 10:22:27;;;;;;;18.10;16.77;;;12.50;57.20;;;;;;5073615;28;20924;-66
2021/04/23 10:24:54;;;;;;;17.37;16.47;;;12.70;56.90;;;;;;5073722;28;20455;-66
2021/04/23 10:27:22;;;;;;;17.83;16.57;;;12.90;57.00;;;;;;5073746;28;20448;-66
2021/04/23 10:29:49;;;;;;;16.57;15.63;;;13.10;55.90;;;;;;5073495;28;20463;-65
2021/04/23 10:32:16;;;;;;;17.07;16.17;;;13.40;56.70;;;;;;5073368;28;20569;-65
2021/04/23 10:34:42;;;;;;;17.40;16.40;;;14.20;55.90;;;;;;5073615;28;20471;-65
2021/04/23 10:37:10;;;;;;;18.80;17.60;;;14.90;53.60;;;;;;5073404;28;20941;-65
2021/04/23 10:39:39;;;;;;;18.47;17.10;;;15.30;50.70;;;;;;5073263;28;20463;-65
2021/04/23 10:42:27;;;;;;;18.10;17.20;;;15.50;50.40;;;;;;5072140;28;20442;-65
2021/04/23 10:44:59;;;;;;;19.10;18.10;;;13.90;47.00;;;;;;5073295;28;20790;-66
2021/04/23 10:47:30;;;;;;;18.73;17.73;;;13.40;48.20;;;;;;5073030;28;20447;-65
2021/04/23 10:50:08;;;;;;;18.97;17.87;;;13.50;49.50;;;;;;5073001;28;20968;-65
2021/04/23 10:52:34;;;;;;;19.67;18.47;;;13.30;50.00;;;;;;5072991;28;20485;-65
2021/04/23 10:55:06;;;;;;;19.07;17.63;;;13.60;51.90;;;;;;5073073;28;20446;-65
2021/04/23 10:57:55;;;;;;;18.63;17.60;;;13.90;51.40;;;;;;5072892;28;20443;-65
2021/04/23 11:00:34;;;;;;;19.43;18.27;;;13.80;50.60;;;;;;5072573;28;20532;-65
2021/04/23 11:03:32;;;;;;;18.93;18.00;;;14.50;51.20;;;;;;5072590;28;20446;-65
2021/04/23 11:06:02;;;;;;;19.70;18.50;;;14.80;48.70;;;;;;5072724;28;20454;-65
2021/04/23 11:08:30;;;;;;;20.03;18.70;;;15.40;47.60;;;;;;5072413;28;20454;-66
2021/04/23 11:11:23;;;;;;;20.13;19.10;;;16.20;46.50;;;;;;5072461;28;20807;-66
2021/04/23 11:13:53;;;;;;;22.60;21.20;;;16.50;45.60;;;;;;5036623;28;21004;-66
2021/04/23 11:16:36;;;;;;;18.13;17.13;;;17.50;44.30;;;;;;5072846;28;20807;-66
2021/04/23 11:19:37;;;;;;;20.37;19.27;;;17.40;43.00;;;;;;5072184;28;20451;-65
2021/04/23 11:22:09;;;;;;;19.60;18.60;;;17.60;42.80;;;;;;5072602;28;20466;-65
2021/04/23 11:24:36;;;;;;;20.33;19.03;;;18.40;42.10;;;;;;5072409;28;20447;-66
2021/04/23 11:27:08;;;;;;;20.57;19.37;;;18.20;42.00;;;;;;5072449;28;20447;-66
2021/04/23 11:29:37;;;;;;;20.87;19.53;;;19.80;41.10;;;;;;5072173;28;20459;-66
2021/04/23 11:32:11;;;;;;;21.00;19.90;;;22.10;40.30;;;;;;5072307;28;20435;-65
2021/04/23 11:34:38;;;;;;;20.87;19.47;;;22.90;36.00;;;;;;5072415;28;20439;-66
2021/04/23 11:37:06;;;;;;;21.67;20.40;;;23.80;33.70;;;;;;5072098;28;20529;-66
2021/04/23 11:39:34;;;;;;;20.80;19.70;;;24.20;32.80;;;;;;5072061;28;20895;-66
2021/04/23 11:42:12;;;;;;;19.90;19.00;;;26.60;30.70;;;;;;5072182;28;20534;-66
2021/04/23 11:44:43;;;;;;;21.00;19.80;;;22.90;29.30;;;;;;5072061;28;20442;-66
2021/04/23 11:47:11;;;;;;;20.30;19.27;;;22.80;31.50;;;;;;5072091;28;20451;-66
2021/04/23 11:49:37;;;;;;;20.57;19.50;;;23.60;30.80;;;;;;5071804;28;20802;-66
2021/04/23 11:52:04;;;;;;;20.90;19.67;;;24.10;30.40;;;;;;5071947;28;20443;-67
2021/04/23 11:54:33;;;;;;;21.40;20.10;;;25.90;30.10;;;;;;5071508;28;20455;-66
2021/04/23 11:57:02;;;;;;;20.00;19.00;;;28.40;28.00;;;;;;5071981;28;20451;-67
2021/04/23 11:59:28;;;;;;;21.70;20.60;;;28.90;26.80;;;;;;5071651;28;20471;-67
2021/04/23 12:01:55;;;;;;;20.47;19.47;;;28.90;25.90;;;;;;5072071;28;20858;-67
2021/04/23 12:04:42;;;;;;;19.70;18.70;;;28.00;25.10;;;;;;5071978;28;20504;-66
2021/04/23 12:07:08;;;;;;;21.30;20.10;;;29.60;25.40;;;;;;5071789;28;20815;-66
2021/04/23 12:09:34;;;;;;;22.00;20.43;;;29.30;25.10;;;;;;5071265;28;20479;-67
2021/04/23 12:12:06;;;;;;;23.87;21.90;;;28.60;24.60;;;;;;5071675;28;20451;-67
2021/04/23 12:14:47;;;;;;;21.77;20.47;;;29.40;24.40;;;;;;5071630;28;20528;-66
2021/04/23 12:17:14;;;;;;;21.83;20.47;;;27.20;24.80;;;;;;5071819;28;20454;-65
2021/04/23 12:19:41;;;;;;;22.67;21.57;;;26.90;25.90;;;;;;5071491;28;21010;-66
2021/04/23 12:22:08;;;;;;;23.73;22.07;;;28.20;25.90;;;;;;5071628;28;20804;-67
2021/04/23 12:24:34;;;;;;;23.60;22.23;;;32.30;24.60;;;;;;5071648;28;20446;-67
2021/04/23 12:27:01;;;;;;;23.20;21.70;;;33.50;22.80;;;;;;5071592;28;20454;-66
2021/04/23 12:29:27;;;;;;;24.43;22.33;;;32.70;22.40;;;;;;5071011;28;20462;-67
2021/04/23 12:31:54;;;;;;;23.03;21.80;;;34.60;22.50;;;;;;5071639;28;20439;-64
2021/04/23 12:34:20;;;;;;;22.13;21.13;;;33.60;21.60;;;;;;5071430;28;20493;-64
2021/04/23 12:36:49;;;;;;;22.80;21.50;;;35.10;21.70;;;;;;5071618;28;20438;-64
2021/04/23 12:39:19;;;;;;;22.43;21.13;;;32.40;20.90;;;;;;5071311;28;20458;-64